Time;durP1;ratioP1;P1;durP2;ratioP2;P2;SDS_P1;SDS_P2;PMS_P1;PMS_P2;Temp;Humidity;BMP_temperature;BMP_pressure;BME280_temperature;BME280_humidity;BME280_pressure;Samples;Min_cycle;Max_cycle;Signal;HPM_P1;HPM_P2
2021/10/25 00:01:31;;;;;;;21.80;10.07;;;;;;;;;;5038702;28;20030;-72
2021/10/25 00:03:58;;;;;;;24.83;10.53;;;;;;;;;;5054500;28;20111;-71
2021/10/25 00:06:24;;;;;;;20.83;9.83;;;;;;;;;;5089491;28;20039;-72
2021/10/25 00:08:50;;;;;;;24.30;9.77;;;;;;;;;;5071737;28;20028;-71
2021/10/25 00:11:16;;;;;;;30.57;10.90;;;;;;;;;;5071824;28;20038;-73
2021/10/25 00:13:43;;;;;;;28.80;9.43;;;;;;;;;;5071644;28;20503;-71
2021/10/25 00:16:09;;;;;;;18.83;9.57;;;;;;;;;;5071602;28;20028;-71
2021/10/25 00:18:35;;;;;;;22.83;9.07;;;;;;;;;;5071338;28;20431;-71
2021/10/25 00:21:02;;;;;;;24.07;11.00;;;;;;;;;;5071690;28;20119;-73
2021/10/25 00:23:27;;;;;;;24.07;9.37;;;;;;;;;;5071437;28;20027;-72
2021/10/25 00:25:53;;;;;;;22.03;9.50;;;;;;;;;;5071585;28;20028;-71
2021/10/25 00:28:18;;;;;;;23.60;10.90;;;;;;;;;;5089669;28;20020;-71
2021/10/25 00:30:44;;;;;;;25.30;9.10;;;;;;;;;;5089257;28;20075;-72
2021/10/25 00:33:10;;;;;;;20.13;9.20;;;;;;;;;;5074801;28;20110;-71
2021/10/25 00:35:35;;;;;;;25.67;9.63;;;;;;;;;;5071065;28;20032;-72
2021/10/25 00:38:01;;;;;;;20.10;9.03;;;;;;;;;;5071240;28;20016;-71
2021/10/25 00:40:27;;;;;;;19.57;9.27;;;;;;;;;;5089433;28;20093;-72
2021/10/25 00:42:53;;;;;;;24.87;9.57;;;;;;;;;;5089618;28;20034;-72
2021/10/25 00:45:19;;;;;;;20.30;9.17;;;;;;;;;;5071494;28;20020;-72
2021/10/25 00:47:44;;;;;;;18.43;9.03;;;;;;;;;;5071144;28;20028;-72
2021/10/25 00:50:10;;;;;;;26.27;9.70;;;;;;;;;;5071569;28;20028;-72
2021/10/25 00:52:39;;;;;;;19.97;9.90;;;;;;;;;;5071116;28;20377;-72
2021/10/25 00:55:07;;;;;;;24.43;9.63;;;;;;;;;;5070961;28;20065;-72
2021/10/25 00:57:32;;;;;;;27.80;9.37;;;;;;;;;;5089154;28;20024;-71
2021/10/25 00:59:58;;;;;;;21.93;9.33;;;;;;;;;;5071123;28;20034;-72
2021/10/25 01:02:24;;;;;;;25.27;10.30;;;;;;;;;;5071592;28;20031;-73
2021/10/25 01:04:49;;;;;;;20.63;9.53;;;;;;;;;;5072492;28;20024;-71
2021/10/25 01:07:15;;;;;;;22.27;9.17;;;;;;;;;;5071920;28;20488;-72
2021/10/25 01:09:41;;;;;;;24.67;9.77;;;;;;;;;;5091276;28;20032;-72
2021/10/25 01:12:07;;;;;;;23.80;10.93;;;;;;;;;;5090551;28;20012;-71
2021/10/25 01:14:33;;;;;;;24.07;9.30;;;;;;;;;;5071351;28;20104;-73
2021/10/25 01:16:59;;;;;;;25.40;9.70;;;;;;;;;;5074023;28;20056;-71
2021/10/25 01:19:24;;;;;;;21.07;9.40;;;;;;;;;;5075241;28;20403;-73
2021/10/25 01:21:50;;;;;;;25.60;10.07;;;;;;;;;;5077456;28;20024;-72
2021/10/25 01:24:16;;;;;;;18.43;8.87;;;;;;;;;;5096128;28;20035;-72
2021/10/25 01:26:41;;;;;;;23.80;9.27;;;;;;;;;;5075076;28;20122;-70
2021/10/25 01:29:07;;;;;;;25.57;9.93;;;;;;;;;;5074283;28;20020;-73
2021/10/25 01:31:33;;;;;;;32.40;10.47;;;;;;;;;;5074373;28;20056;-72
2021/10/25 01:33:59;;;;;;;23.97;9.07;;;;;;;;;;5074498;28;20085;-72
2021/10/25 01:36:24;;;;;;;30.10;12.80;;;;;;;;;;5092777;28;20391;-71
2021/10/25 01:38:50;;;;;;;25.00;10.27;;;;;;;;;;5074274;28;20549;-71
2021/10/25 01:41:17;;;;;;;21.30;11.20;;;;;;;;;;5092641;28;20032;-72
2021/10/25 01:43:42;;;;;;;27.70;10.53;;;;;;;;;;5074029;28;20020;-72
2021/10/25 01:46:09;;;;;;;21.17;10.87;;;;;;;;;;5074094;28;20020;-72
2021/10/25 01:48:35;;;;;;;28.83;10.90;;;;;;;;;;5074403;28;20031;-70
2021/10/25 01:51:01;;;;;;;26.47;10.80;;;;;;;;;;5075126;28;20020;-72
2021/10/25 01:53:31;;;;;;;28.70;10.97;;;;;;;;;;5058248;28;20062;-73
2021/10/25 01:56:00;;;;;;;22.60;10.27;;;;;;;;;;5074773;28;20081;-72
2021/10/25 01:58:26;;;;;;;32.83;11.70;;;;;;;;;;5074072;28;20020;-71
2021/10/25 02:00:52;;;;;;;24.67;11.00;;;;;;;;;;5092033;28;20024;-72
2021/10/25 02:03:17;;;;;;;25.10;11.37;;;;;;;;;;5092400;28;20023;-72
2021/10/25 02:05:43;;;;;;;21.83;11.00;;;;;;;;;;5091814;28;20120;-72
2021/10/25 02:08:09;;;;;;;21.63;10.47;;;;;;;;;;5091827;28;20020;-72
2021/10/25 02:10:35;;;;;;;22.17;10.93;;;;;;;;;;5073510;28;20024;-71
2021/10/25 02:13:00;;;;;;;27.07;11.73;;;;;;;;;;5073793;28;20028;-71
2021/10/25 02:15:26;;;;;;;23.27;10.53;;;;;;;;;;5092849;28;20476;-72
2021/10/25 02:17:52;;;;;;;36.70;11.60;;;;;;;;;;5095292;28;20039;-72
2021/10/25 02:20:18;;;;;;;31.80;11.47;;;;;;;;;;5091892;28;20038;-72
2021/10/25 02:22:43;;;;;;;21.50;11.20;;;;;;;;;;5091470;28;20095;-72
2021/10/25 02:25:09;;;;;;;28.97;13.10;;;;;;;;;;5091742;28;20099;-72
2021/10/25 02:27:35;;;;;;;27.40;11.40;;;;;;;;;;5090458;28;20383;-70
2021/10/25 02:30:00;;;;;;;23.67;12.53;;;;;;;;;;5073211;28;20031;-71
2021/10/25 02:32:26;;;;;;;28.30;13.13;;;;;;;;;;5072776;28;20056;-72
2021/10/25 02:34:52;;;;;;;32.87;14.13;;;;;;;;;;5072805;28;20051;-72
2021/10/25 02:37:18;;;;;;;34.60;14.00;;;;;;;;;;5072758;28;20058;-73
2021/10/25 02:39:45;;;;;;;35.87;15.40;;;;;;;;;;5072718;28;20479;-72
2021/10/25 02:42:11;;;;;;;36.93;15.63;;;;;;;;;;5056242;28;20035;-72
2021/10/25 02:44:37;;;;;;;33.93;15.03;;;;;;;;;;5091008;28;20020;-71
2021/10/25 02:47:03;;;;;;;35.73;14.83;;;;;;;;;;5056515;28;20495;-71
2021/10/25 02:49:29;;;;;;;38.97;16.17;;;;;;;;;;5072936;28;20156;-71
2021/10/25 02:51:55;;;;;;;40.53;15.63;;;;;;;;;;5091122;28;20041;-70
2021/10/25 02:54:21;;;;;;;38.77;15.70;;;;;;;;;;5072922;28;20379;-71
2021/10/25 02:56:47;;;;;;;36.27;15.00;;;;;;;;;;5072501;28;20020;-71
2021/10/25 02:59:14;;;;;;;39.50;16.77;;;;;;;;;;5072558;28;20020;-70
2021/10/25 03:01:41;;;;;;;34.93;14.63;;;;;;;;;;5072361;28;20119;-72
2021/10/25 03:04:07;;;;;;;31.33;14.40;;;;;;;;;;5090991;28;20054;-72
2021/10/25 03:06:37;;;;;;;31.63;14.83;;;;;;;;;;5072382;28;20468;-71
2021/10/25 03:09:04;;;;;;;43.30;15.23;;;;;;;;;;5072630;28;20368;-71
2021/10/25 03:11:30;;;;;;;42.97;16.37;;;;;;;;;;5092096;28;20112;-71
2021/10/25 03:13:57;;;;;;;36.67;15.93;;;;;;;;;;5072502;28;20567;-72
2021/10/25 03:16:25;;;;;;;41.87;16.90;;;;;;;;;;5072439;28;20063;-72
2021/10/25 03:18:51;;;;;;;43.57;16.67;;;;;;;;;;5090341;28;20081;-72
2021/10/25 03:21:18;;;;;;;36.27;14.27;;;;;;;;;;5072487;28;20055;-72
2021/10/25 03:23:44;;;;;;;36.23;14.47;;;;;;;;;;5090288;28;20036;-72
2021/10/25 03:26:09;;;;;;;38.97;15.93;;;;;;;;;;5090322;28;20016;-73
2021/10/25 03:28:35;;;;;;;33.60;16.00;;;;;;;;;;5071707;28;20027;-70
2021/10/25 03:31:01;;;;;;;36.67;17.10;;;;;;;;;;5071821;28;20424;-72
2021/10/25 03:33:28;;;;;;;50.67;18.53;;;;;;;;;;5072104;28;20054;-71
2021/10/25 03:35:53;;;;;;;40.43;17.87;;;;;;;;;;5090219;28;20499;-71
2021/10/25 03:38:19;;;;;;;45.17;18.20;;;;;;;;;;5072177;28;20055;-71
2021/10/25 03:40:49;;;;;;;46.33;17.70;;;;;;;;;;5071964;28;20031;-70
2021/10/25 03:43:18;;;;;;;40.57;16.47;;;;;;;;;;5071836;28;20066;-72
2021/10/25 03:45:51;;;;;;;46.25;17.77;;;;;;;;;;5090162;28;20024;-71
2021/10/25 03:50:45;;;;;;;45.07;18.43;;;;;;;;;;5071673;28;20038;-71
2021/10/25 03:53:28;;;;;;;39.47;16.67;;;;;;;;;;5090180;28;20473;-71
2021/10/25 04:28:26;;;;;;;37.93;16.87;;;;;;;;;;5089335;28;20059;-71
2021/10/25 04:30:57;;;;;;;46.73;19.37;;;;;;;;;;5089089;28;20145;-72
2021/10/25 04:33:24;;;;;;;40.77;18.30;;;;;;;;;;5071356;28;20249;-71
2021/10/25 04:35:51;;;;;;;40.37;17.70;;;;;;;;;;5089713;28;20032;-72
2021/10/25 04:38:17;;;;;;;39.30;17.97;;;;;;;;;;5071278;28;20498;-71
2021/10/25 04:40:43;;;;;;;42.73;16.87;;;;;;;;;;5089089;28;20421;-71
2021/10/25 04:43:14;;;;;;;44.17;18.33;;;;;;;;;;5089466;28;20035;-72
2021/10/25 04:45:41;;;;;;;37.40;16.30;;;;;;;;;;5071237;28;20388;-72
2021/10/25 04:48:07;;;;;;;57.63;25.27;;;;;;;;;;5070801;28;20039;-71
2021/10/25 04:50:32;;;;;;;45.13;19.23;;;;;;;;;;5071420;28;20020;-72
2021/10/25 04:52:58;;;;;;;42.07;17.50;;;;;;;;;;5093319;28;20020;-71
2021/10/25 04:55:24;;;;;;;55.30;23.03;;;;;;;;;;5074800;28;20537;-72
2021/10/25 04:57:49;;;;;;;42.00;18.43;;;;;;;;;;5092917;28;20038;-70
2021/10/25 05:00:15;;;;;;;47.17;18.83;;;;;;;;;;5074771;28;20074;-70
2021/10/25 05:02:40;;;;;;;42.77;17.30;;;;;;;;;;5074805;28;20032;-71
2021/10/25 05:05:07;;;;;;;48.03;17.07;;;;;;;;;;5092883;28;20038;-72
2021/10/25 05:07:33;;;;;;;47.27;19.53;;;;;;;;;;5058067;28;20030;-72
2021/10/25 05:09:59;;;;;;;48.67;17.67;;;;;;;;;;5074510;28;20414;-72
2021/10/25 05:12:26;;;;;;;40.83;18.03;;;;;;;;;;5074782;28;20028;-73
2021/10/25 05:14:52;;;;;;;40.87;19.47;;;;;;;;;;5074347;28;20062;-71
2021/10/25 05:17:18;;;;;;;47.13;17.23;;;;;;;;;;5092652;28;20040;-72
2021/10/25 05:19:45;;;;;;;47.70;19.67;;;;;;;;;;5092497;28;20133;-72
2021/10/25 05:22:11;;;;;;;40.87;18.13;;;;;;;;;;5082612;28;20049;-71
2021/10/25 05:24:39;;;;;;;43.00;17.50;;;;;;;;;;5062445;28;20017;-72
2021/10/25 05:27:06;;;;;;;40.33;17.47;;;;;;;;;;5045290;28;20052;-71
2021/10/25 05:29:32;;;;;;;39.80;17.60;;;;;;;;;;5051851;28;20086;-72
2021/10/25 05:31:58;;;;;;;45.57;19.30;;;;;;;;;;5029329;28;20572;-71
2021/10/25 05:34:24;;;;;;;39.03;18.13;;;;;;;;;;5019639;28;20032;-70
2021/10/25 05:36:50;;;;;;;40.80;18.27;;;;;;;;;;4989148;28;20410;-72
2021/10/25 05:39:15;;;;;;;42.77;17.07;;;;;;;;;;4994167;28;20034;-69
2021/10/25 05:41:43;;;;;;;48.90;18.20;;;;;;;;;;4991385;28;20030;-71
2021/10/25 05:44:09;;;;;;;64.17;23.67;;;;;;;;;;4989819;28;20034;-71
2021/10/25 05:46:35;;;;;;;46.13;20.43;;;;;;;;;;4983370;28;20671;-72
2021/10/25 05:49:01;;;;;;;47.43;18.40;;;;;;;;;;4995051;28;20040;-72
2021/10/25 05:51:26;;;;;;;38.90;18.53;;;;;;;;;;4992163;28;20108;-71
2021/10/25 05:53:52;;;;;;;43.13;19.60;;;;;;;;;;4998616;28;20122;-73
2021/10/25 05:56:18;;;;;;;41.03;17.40;;;;;;;;;;4984710;28;20821;-72
2021/10/25 05:58:44;;;;;;;53.00;20.37;;;;;;;;;;4991237;28;20031;-71
2021/10/25 06:01:13;;;;;;;44.03;18.07;;;;;;;;;;4991224;28;20030;-72
2021/10/25 06:03:45;;;;;;;50.77;21.10;;;;;;;;;;4990694;28;20070;-73
2021/10/25 06:06:11;;;;;;;48.20;18.02;;;;;;;;;;4990445;28;20352;-70
2021/10/25 06:08:39;;;;;;;56.73;20.47;;;;;;;;;;4990539;28;20109;-72
2021/10/25 06:11:05;;;;;;;45.07;17.50;;;;;;;;;;4992493;28;20027;-71
2021/10/25 06:13:38;;;;;;;45.77;19.87;;;;;;;;;;4990350;28;20519;-71
2021/10/25 06:16:12;;;;;;;45.63;19.93;;;;;;;;;;4983764;28;20403;-72
2021/10/25 06:18:39;;;;;;;49.13;18.43;;;;;;;;;;4987667;28;20054;-72
2021/10/25 06:21:06;;;;;;;56.53;20.90;;;;;;;;;;4988696;28;20046;-72
2021/10/25 06:23:33;;;;;;;50.70;19.90;;;;;;;;;;4991757;28;20022;-72
2021/10/25 06:25:59;;;;;;;53.73;22.33;;;;;;;;;;4991477;28;20018;-71
2021/10/25 06:28:26;;;;;;;46.90;20.53;;;;;;;;;;4978990;28;20026;-72
2021/10/25 06:31:05;;;;;;;50.53;20.73;;;;;;;;;;4989356;28;20133;-72
2021/10/25 06:33:38;;;;;;;48.43;19.73;;;;;;;;;;5007503;28;20064;-73
2021/10/25 06:36:06;;;;;;;50.83;19.23;;;;;;;;;;5018758;28;20593;-72
2021/10/25 06:38:41;;;;;;;54.60;22.57;;;;;;;;;;5007836;28;20021;-72
2021/10/25 06:41:07;;;;;;;51.45;22.42;;;;;;;;;;5007373;28;20026;-73
2021/10/25 06:43:34;;;;;;;54.57;21.90;;;;;;;;;;5010431;28;20032;-72
2021/10/25 06:46:00;;;;;;;56.07;23.63;;;;;;;;;;4986943;28;20042;-73
2021/10/25 06:48:28;;;;;;;50.67;20.20;;;;;;;;;;4995795;28;20053;-73
2021/10/25 06:50:54;;;;;;;49.07;20.37;;;;;;;;;;5000219;28;20655;-72
2021/10/25 06:53:20;;;;;;;57.97;24.47;;;;;;;;;;4994910;28;20041;-73
2021/10/25 06:55:46;;;;;;;61.83;21.60;;;;;;;;;;5003340;28;20067;-71
2021/10/25 06:58:13;;;;;;;50.60;21.67;;;;;;;;;;4984549;28;20120;-71
2021/10/25 07:00:39;;;;;;;50.00;20.13;;;;;;;;;;4991174;28;20046;-72
2021/10/25 07:03:05;;;;;;;63.57;24.23;;;;;;;;;;4999083;28;20060;-73
2021/10/25 07:05:35;;;;;;;49.90;21.50;;;;;;;;;;4988430;28;20026;-73
2021/10/25 07:08:01;;;;;;;53.93;20.50;;;;;;;;;;4999195;28;20034;-73
2021/10/25 07:10:28;;;;;;;51.90;22.77;;;;;;;;;;4993815;28;20120;-72
2021/10/25 07:12:56;;;;;;;54.83;19.97;;;;;;;;;;5000226;28;20117;-73
2021/10/25 07:15:23;;;;;;;56.80;20.13;;;;;;;;;;4995074;28;20032;-74
2021/10/25 07:18:05;;;;;;;48.17;20.47;;;;;;;;;;4981772;28;20397;-72
2021/10/25 07:20:47;;;;;;;51.10;19.47;;;;;;;;;;4986390;28;20053;-74
2021/10/25 08:07:00;;;;;;;43.08;17.73;;;;;;;;;;4986518;28;20470;-73
2021/10/25 08:09:42;;;;;;;45.37;19.80;;;;;;;;;;4984317;28;20497;-73
2021/10/25 08:12:12;;;;;;;44.63;17.42;;;;;;;;;;4997497;28;20026;-73
2021/10/25 08:14:42;;;;;;;40.50;17.83;;;;;;;;;;4998387;28;20038;-73
2021/10/25 08:17:09;;;;;;;37.77;18.07;;;;;;;;;;4982225;28;20026;-73
2021/10/25 08:19:35;;;;;;;48.40;19.23;;;;;;;;;;4982156;28;20105;-74
2021/10/25 08:22:07;;;;;;;41.17;16.73;;;;;;;;;;4980160;28;20042;-72
2021/10/25 08:24:38;;;;;;;38.57;18.53;;;;;;;;;;4978374;28;20085;-73
2021/10/25 08:27:06;;;;;;;42.93;19.90;;;;;;;;;;4997327;28;20034;-72
2021/10/25 08:29:36;;;;;;;58.13;20.07;;;;;;;;;;4984916;28;20030;-72
2021/10/25 08:39:48;;;;;;;38.58;18.70;;;;;;;;;;4985688;28;20581;-72
2021/10/25 08:42:23;;;;;;;45.20;17.27;;;;;;;;;;4985665;28;20628;-71
2021/10/25 08:45:18;;;;;;;43.47;18.57;;;;;;;;;;4989045;28;20121;-73
2021/10/25 08:47:45;;;;;;;40.60;17.90;;;;;;;;;;4986998;28;20050;-73
2021/10/25 08:50:23;;;;;;;33.73;15.83;;;;;;;;;;4997076;28;20034;-71
2021/10/25 08:52:51;;;;;;;32.30;15.83;;;;;;;;;;5000041;28;20108;-72
2021/10/25 08:55:18;;;;;;;41.40;17.50;;;;;;;;;;5001129;28;20050;-72
2021/10/25 08:57:48;;;;;;;41.63;16.30;;;;;;;;;;4998566;28;20434;-73
2021/10/25 09:00:16;;;;;;;37.20;16.53;;;;;;;;;;5000488;28;20401;-73
2021/10/25 09:02:44;;;;;;;34.83;15.93;;;;;;;;;;4986708;28;20486;-70
2021/10/25 09:05:12;;;;;;;39.40;16.37;;;;;;;;;;4986849;28;20041;-71
2021/10/25 09:07:48;;;;;;;25.37;12.90;;;;;;;;;;5001544;28;20473;-73
2021/10/25 09:10:21;;;;;;;29.77;12.63;;;;;;;;;;4996873;28;20034;-70
2021/10/25 09:12:55;;;;;;;36.47;16.20;;;;;;;;;;4984664;28;20038;-72
2021/10/25 09:15:24;;;;;;;22.13;12.20;;;;;;;;;;4999637;28;20041;-73
2021/10/25 09:17:50;;;;;;;36.83;14.10;;;;;;;;;;4984852;28;20046;-72
2021/10/25 09:20:17;;;;;;;31.43;13.77;;;;;;;;;;4983488;28;20034;-72
2021/10/25 09:22:43;;;;;;;29.57;13.37;;;;;;;;;;4998925;28;20034;-72
2021/10/25 09:25:09;;;;;;;22.30;12.40;;;;;;;;;;4985335;28;20038;-72
2021/10/25 09:27:47;;;;;;;24.20;11.67;;;;;;;;;;4986500;28;20061;-71
2021/10/25 09:30:21;;;;;;;28.53;11.70;;;;;;;;;;4995686;28;20100;-73
2021/10/25 09:32:47;;;;;;;20.00;10.97;;;;;;;;;;5000636;28;20078;-71
2021/10/25 09:35:20;;;;;;;24.00;11.57;;;;;;;;;;5001889;28;20569;-72
2021/10/25 09:38:02;;;;;;;24.60;10.83;;;;;;;;;;4987981;28;20042;-75
2021/10/25 09:40:52;;;;;;;18.83;10.93;;;;;;;;;;4986364;28;20818;-73
2021/10/25 09:45:02;;;;;;;20.13;10.97;;;;;;;;;;5001086;28;20046;-72
2021/10/25 09:51:27;;;;;;;22.63;9.80;;;;;;;;;;4983050;28;20069;-73
2021/10/25 09:54:00;;;;;;;25.17;10.47;;;;;;;;;;4997705;28;20037;-72
2021/10/25 09:56:31;;;;;;;20.93;10.50;;;;;;;;;;4998881;28;20371;-73
2021/10/25 10:01:38;;;;;;;25.00;11.13;;;;;;;;;;4980953;28;20038;-72
2021/10/25 10:04:05;;;;;;;26.30;12.97;;;;;;;;;;4997971;28;20490;-75
2021/10/25 10:06:31;;;;;;;29.20;12.60;;;;;;;;;;4984896;28;20033;-72
2021/10/25 10:08:59;;;;;;;22.37;11.20;;;;;;;;;;4997993;28;20026;-74
2021/10/25 10:11:27;;;;;;;24.33;11.80;;;;;;;;;;4982252;28;20026;-72
2021/10/25 10:13:52;;;;;;;28.50;11.53;;;;;;;;;;4983751;28;20038;-72
2021/10/25 10:16:19;;;;;;;30.57;11.50;;;;;;;;;;4983957;28;20057;-73
2021/10/25 10:18:58;;;;;;;23.20;11.33;;;;;;;;;;4981661;28;20065;-74
2021/10/25 10:21:25;;;;;;;19.60;11.23;;;;;;;;;;4982226;28;20092;-71
2021/10/25 10:23:54;;;;;;;23.93;11.80;;;;;;;;;;4984912;28;20486;-74
2021/10/25 10:26:20;;;;;;;20.07;10.93;;;;;;;;;;4981023;28;20712;-72
2021/10/25 10:28:51;;;;;;;35.53;15.17;;;;;;;;;;4988131;28;20030;-72
2021/10/25 10:31:24;;;;;;;24.17;14.10;;;;;;;;;;4996829;28;20105;-74
2021/10/25 10:34:00;;;;;;;24.97;11.97;;;;;;;;;;4986530;28;20038;-72
2021/10/25 10:36:30;;;;;;;24.83;12.03;;;;;;;;;;4976493;28;20078;-72
2021/10/25 10:39:06;;;;;;;29.30;13.80;;;;;;;;;;4981048;28;20061;-72
2021/10/25 10:41:52;;;;;;;21.90;10.73;;;;;;;;;;4983953;28;20565;-71
2021/10/25 10:44:21;;;;;;;23.63;11.60;;;;;;;;;;4999871;28;20110;-73
2021/10/25 10:47:00;;;;;;;21.77;10.80;;;;;;;;;;4997526;28;20037;-72
2021/10/25 10:49:35;;;;;;;22.37;10.27;;;;;;;;;;4998668;28;20026;-72
2021/10/25 10:55:00;;;;;;;28.40;13.23;;;;;;;;;;4984933;28;20026;-71
2021/10/25 11:00:36;;;;;;;23.07;9.73;;;;;;;;;;4982371;28;20533;-72
2021/10/25 11:03:23;;;;;;;22.67;10.50;;;;;;;;;;4984857;28;20030;-71
2021/10/25 11:06:10;;;;;;;23.97;9.93;;;;;;;;;;4983309;28;20027;-73
2021/10/25 11:08:44;;;;;;;21.17;10.67;;;;;;;;;;4986322;28;20030;-71
2021/10/25 11:11:22;;;;;;;20.10;10.10;;;;;;;;;;5000677;28;20070;-72
2021/10/25 11:13:55;;;;;;;19.50;9.23;;;;;;;;;;5000043;28;20093;-71
2021/10/25 11:16:33;;;;;;;20.10;10.67;;;;;;;;;;5000323;28;20034;-72
2021/10/25 11:19:01;;;;;;;20.83;9.10;;;;;;;;;;4983787;28;20037;-70
2021/10/25 11:21:35;;;;;;;14.30;8.47;;;;;;;;;;4998376;28;20171;-72
2021/10/25 11:24:13;;;;;;;17.70;8.73;;;;;;;;;;4998221;28;20045;-73
2021/10/25 11:26:45;;;;;;;22.90;9.00;;;;;;;;;;4985782;28;20034;-72
2021/10/25 11:29:26;;;;;;;19.88;9.10;;;;;;;;;;4988727;28;20034;-71
2021/10/25 11:31:59;;;;;;;19.73;9.33;;;;;;;;;;4983311;28;20158;-71
2021/10/25 11:34:29;;;;;;;18.90;8.37;;;;;;;;;;4987337;28;20061;-72
2021/10/25 11:37:03;;;;;;;19.13;8.07;;;;;;;;;;5002082;28;20045;-72
2021/10/25 11:39:58;;;;;;;25.43;10.10;;;;;;;;;;4998831;28;20081;-72
2021/10/25 11:42:33;;;;;;;14.03;8.23;;;;;;;;;;4982281;28;20060;-72
2021/10/25 11:45:05;;;;;;;13.83;7.83;;;;;;;;;;4996808;28;20050;-74
2021/10/25 11:47:43;;;;;;;19.57;9.33;;;;;;;;;;4983018;28;20905;-74
2021/10/25 11:50:31;;;;;;;14.23;7.60;;;;;;;;;;4979523;28;20406;-72
2021/10/25 11:53:01;;;;;;;22.23;8.90;;;;;;;;;;4993508;28;20065;-72
2021/10/25 11:55:33;;;;;;;17.87;8.73;;;;;;;;;;4981079;28;20038;-72
2021/10/25 11:58:04;;;;;;;18.57;7.80;;;;;;;;;;4982047;28;20038;-74
2021/10/25 12:00:38;;;;;;;20.93;7.63;;;;;;;;;;4995790;28;20057;-73
2021/10/25 12:03:19;;;;;;;16.73;7.63;;;;;;;;;;4998694;28;20050;-74
2021/10/25 12:05:47;;;;;;;18.53;6.70;;;;;;;;;;4980607;28;20398;-72
2021/10/25 12:08:16;;;;;;;14.10;6.63;;;;;;;;;;4996283;28;20023;-73
2021/10/25 12:10:44;;;;;;;27.53;8.67;;;;;;;;;;4999319;28;20037;-75
2021/10/25 12:13:11;;;;;;;14.00;7.37;;;;;;;;;;4989451;28;20173;-74
2021/10/25 12:15:42;;;;;;;15.47;6.57;;;;;;;;;;4980826;28;20113;-72
2021/10/25 12:18:13;;;;;;;27.58;9.25;;;;;;;;;;4996573;28;20140;-71
2021/10/25 12:20:40;;;;;;;16.27;7.17;;;;;;;;;;4993223;28;20611;-74
2021/10/25 12:23:11;;;;;;;13.37;7.07;;;;;;;;;;4998283;28;20080;-72
2021/10/25 12:25:38;;;;;;;17.73;7.73;;;;;;;;;;4996735;28;20088;-73
2021/10/25 12:28:11;;;;;;;12.43;7.10;;;;;;;;;;4983158;28;20034;-74
2021/10/25 12:30:37;;;;;;;11.70;6.90;;;;;;;;;;4977728;28;20041;-73
2021/10/25 12:33:03;;;;;;;23.80;7.73;;;;;;;;;;4996640;28;20412;-73
2021/10/25 12:35:37;;;;;;;23.03;7.40;;;;;;;;;;4996229;28;20439;-72
2021/10/25 12:38:16;;;;;;;20.43;8.10;;;;;;;;;;4996380;28;20034;-73
2021/10/25 12:40:54;;;;;;;20.83;8.47;;;;;;;;;;4993980;28;20733;-72
2021/10/25 12:43:21;;;;;;;22.33;7.80;;;;;;;;;;4994967;28;20034;-74
2021/10/25 12:46:02;;;;;;;12.93;7.30;;;;;;;;;;4980063;28;20360;-74
2021/10/25 12:48:41;;;;;;;14.57;7.35;;;;;;;;;;4980482;28;20473;-72
2021/10/25 12:51:07;;;;;;;17.63;8.60;;;;;;;;;;4979844;28;20389;-72
2021/10/25 12:53:33;;;;;;;20.07;8.27;;;;;;;;;;4996747;28;20073;-72
2021/10/25 12:56:00;;;;;;;16.55;7.28;;;;;;;;;;4982479;28;20117;-74
2021/10/25 12:58:27;;;;;;;15.25;7.95;;;;;;;;;;4996996;28;20045;-72
2021/10/25 13:00:54;;;;;;;13.95;7.75;;;;;;;;;;4995212;28;20548;-73
2021/10/25 13:03:26;;;;;;;16.60;7.85;;;;;;;;;;4982432;28;20037;-73
2021/10/25 13:06:08;;;;;;;16.88;8.10;;;;;;;;;;4996471;28;20082;-73
2021/10/25 13:08:35;;;;;;;18.48;7.47;;;;;;;;;;4997159;28;20052;-72
2021/10/25 13:11:02;;;;;;;14.95;6.80;;;;;;;;;;4977696;28;20034;-73
2021/10/25 13:13:32;;;;;;;19.02;7.72;;;;;;;;;;4997858;28;20042;-73
2021/10/25 13:15:57;;;;;;;15.27;9.45;;;;;;;;;;4983135;28;20387;-71
2021/10/25 13:18:25;;;;;;;17.65;8.93;;;;;;;;;;4998077;28;20069;-73
2021/10/25 13:20:51;;;;;;;18.67;6.95;;;;;;;;;;4999318;28;20036;-73
2021/10/25 13:23:17;;;;;;;15.73;7.47;;;;;;;;;;4985762;28;20018;-73
2021/10/25 13:25:43;;;;;;;17.67;8.82;;;;;;;;;;4985171;28;20019;-71
2021/10/25 13:28:09;;;;;;;16.67;8.02;;;;;;;;;;4999080;28;20034;-73
2021/10/25 13:30:36;;;;;;;16.17;8.38;;;;;;;;;;4999931;28;20041;-72
2021/10/25 13:33:03;;;;;;;12.27;6.95;;;;;;;;;;4983575;28;20054;-73
2021/10/25 13:35:29;;;;;;;19.83;8.55;;;;;;;;;;4980416;28;20049;-70
2021/10/25 13:37:56;;;;;;;22.48;9.23;;;;;;;;;;4984083;28;20027;-70
2021/10/25 13:40:27;;;;;;;17.08;7.90;;;;;;;;;;4973037;28;20042;-73
2021/10/25 13:42:54;;;;;;;17.25;8.00;;;;;;;;;;4994951;28;20034;-72
2021/10/25 13:45:19;;;;;;;17.15;7.95;;;;;;;;;;4998686;28;20128;-72
2021/10/25 13:47:46;;;;;;;20.23;8.27;;;;;;;;;;4981062;28;20132;-74
2021/10/25 13:50:11;;;;;;;16.52;8.00;;;;;;;;;;4995001;28;20035;-73
2021/10/25 13:52:37;;;;;;;19.20;8.03;;;;;;;;;;4985113;28;20371;-74
2021/10/25 13:55:05;;;;;;;19.75;7.55;;;;;;;;;;4978981;28;20057;-73
2021/10/25 13:57:36;;;;;;;18.60;7.53;;;;;;;;;;4995089;28;20054;-73
2021/10/25 14:00:03;;;;;;;16.52;8.20;;;;;;;;;;4992698;28;20034;-74
2021/10/25 14:02:30;;;;;;;18.93;8.13;;;;;;;;;;4982708;28;20041;-74
2021/10/25 14:04:58;;;;;;;26.80;21.37;;;;;;;;;;4980873;28;20030;-72
2021/10/25 14:07:30;;;;;;;20.60;8.77;;;;;;;;;;4958092;28;20081;-73
2021/10/25 14:10:06;;;;;;;16.77;8.50;;;;;;;;;;4978318;28;20042;-73
2021/10/25 14:12:33;;;;;;;13.70;9.25;;;;;;;;;;4985913;28;20587;-72
2021/10/25 14:17:40;;;;;;;24.30;9.02;;;;;;;;;;4989599;28;20462;-72
2021/10/25 14:20:07;;;;;;;20.73;8.53;;;;;;;;;;4994598;28;20058;-71
2021/10/25 14:22:32;;;;;;;14.85;9.50;;;;;;;;;;5004262;28;20120;-71
2021/10/25 14:24:58;;;;;;;15.60;7.60;;;;;;;;;;4987867;28;20188;-71
2021/10/25 14:27:23;;;;;;;18.20;7.93;;;;;;;;;;5002665;28;20117;-73
2021/10/25 14:29:49;;;;;;;16.73;8.27;;;;;;;;;;4999956;28;20035;-72
2021/10/25 14:32:15;;;;;;;19.47;8.10;;;;;;;;;;4970102;28;20077;-73
2021/10/25 14:34:40;;;;;;;24.17;10.23;;;;;;;;;;4990979;28;20034;-71
2021/10/25 14:37:07;;;;;;;19.55;8.13;;;;;;;;;;5002121;28;20037;-72
2021/10/25 14:39:41;;;;;;;23.07;9.70;;;;;;;;;;4987843;28;20053;-71
2021/10/25 14:42:29;;;;;;;24.77;9.13;;;;;;;;;;4988647;28;20116;-72
2021/10/25 14:55:32;;;;;;;18.13;8.25;;;;;;;;;;4982072;28;20044;-72
2021/10/25 14:57:58;;;;;;;23.40;10.10;;;;;;;;;;5013917;28;20056;-72
2021/10/25 15:00:25;;;;;;;17.37;8.40;;;;;;;;;;4996088;28;20026;-73
2021/10/25 15:02:51;;;;;;;22.50;8.83;;;;;;;;;;4990837;28;20026;-74
2021/10/25 15:05:20;;;;;;;22.70;9.50;;;;;;;;;;5005992;28;20438;-72
2021/10/25 15:07:45;;;;;;;22.23;9.20;;;;;;;;;;4991350;28;20026;-74
2021/10/25 15:10:13;;;;;;;23.90;9.13;;;;;;;;;;4991298;28;20038;-74
2021/10/25 15:12:39;;;;;;;20.87;9.20;;;;;;;;;;4988932;28;20075;-72
2021/10/25 15:15:08;;;;;;;27.67;12.27;;;;;;;;;;4993325;28;20141;-73
2021/10/25 15:17:34;;;;;;;22.00;8.50;;;;;;;;;;4990579;28;20030;-72
2021/10/25 15:20:00;;;;;;;16.20;8.93;;;;;;;;;;4992629;28;20382;-72
2021/10/25 15:22:26;;;;;;;15.53;8.23;;;;;;;;;;5004346;28;20040;-73
2021/10/25 15:24:55;;;;;;;16.43;9.57;;;;;;;;;;4993654;28;20558;-72
2021/10/25 15:27:22;;;;;;;21.37;11.13;;;;;;;;;;5005647;28;20034;-73
2021/10/25 15:29:51;;;;;;;23.90;10.07;;;;;;;;;;4988523;28;20413;-72
2021/10/25 15:32:21;;;;;;;21.93;10.87;;;;;;;;;;4990885;28;20530;-72
2021/10/25 15:34:50;;;;;;;22.70;9.77;;;;;;;;;;5003312;28;20518;-73
2021/10/25 15:37:19;;;;;;;29.00;10.40;;;;;;;;;;4989146;28;20026;-73
2021/10/25 15:39:46;;;;;;;25.40;10.90;;;;;;;;;;5011135;28;20414;-73
2021/10/25 15:42:17;;;;;;;23.37;10.33;;;;;;;;;;4988545;28;20061;-72
2021/10/25 15:44:44;;;;;;;24.03;10.40;;;;;;;;;;4988423;28;20030;-74
2021/10/25 15:47:11;;;;;;;39.17;16.00;;;;;;;;;;5004035;28;20718;-73
2021/10/25 15:49:38;;;;;;;21.27;11.03;;;;;;;;;;4988345;28;20041;-71
2021/10/25 15:52:04;;;;;;;22.60;9.37;;;;;;;;;;4991732;28;20478;-71
2021/10/25 15:54:32;;;;;;;21.23;9.83;;;;;;;;;;5004556;28;20145;-72
2021/10/25 15:56:57;;;;;;;23.63;10.53;;;;;;;;;;5005261;28;20042;-70
2021/10/25 15:59:23;;;;;;;28.27;11.70;;;;;;;;;;4985085;28;20033;-73
2021/10/25 16:01:50;;;;;;;23.47;10.03;;;;;;;;;;4978270;28;20622;-73
2021/10/25 16:04:17;;;;;;;22.87;9.77;;;;;;;;;;4987712;28;20370;-74
2021/10/25 16:06:43;;;;;;;29.77;10.87;;;;;;;;;;4989660;28;20026;-74
2021/10/25 16:09:10;;;;;;;33.63;12.53;;;;;;;;;;5005010;28;20573;-73
2021/10/25 16:11:38;;;;;;;38.93;11.83;;;;;;;;;;4988611;28;20193;-73
2021/10/25 16:14:05;;;;;;;27.70;12.20;;;;;;;;;;5004571;28;20478;-73
2021/10/25 16:16:31;;;;;;;31.30;12.80;;;;;;;;;;5004333;28;20054;-72
2021/10/25 16:18:56;;;;;;;22.50;10.83;;;;;;;;;;5003160;28;20066;-73
2021/10/25 16:21:22;;;;;;;29.03;11.63;;;;;;;;;;5004864;28;20433;-74
2021/10/25 16:23:48;;;;;;;28.33;11.53;;;;;;;;;;5005838;28;20137;-73